createdAt,value
2019-01-15T00:00:15.112Z,1005.84
2019-01-15T00:01:15.115Z,1005.85
2019-01-15T00:02:15.078Z,1005.81
2019-01-15T00:03:15.077Z,1005.86
2019-01-15T00:04:15.056Z,1005.87
2019-01-15T00:05:15.095Z,1005.87
2019-01-15T00:06:15.045Z,1005.95
2019-01-15T00:07:15.062Z,1005.92
2019-01-15T00:08:15.064Z,1005.93
2019-01-15T00:09:14.998Z,1005.90
2019-01-15T00:10:14.999Z,1005.91
2019-01-15T00:11:14.997Z,1005.97
2019-01-15T00:12:14.974Z,1005.98
2019-01-15T00:13:14.956Z,1006.00
2019-01-15T00:14:14.976Z,1005.94
2019-01-15T00:15:14.986Z,1005.97
2019-01-15T00:16:14.924Z,1006.00
2019-01-15T00:17:14.919Z,1006.04
2019-01-15T00:18:14.954Z,1006.02
2019-01-15T00:19:14.920Z,1005.99
2019-01-15T00:20:15.044Z,1005.98
2019-01-15T00:21:14.890Z,1006.02
2019-01-15T00:22:14.881Z,1006.01
2019-01-15T00:23:14.860Z,1006.00
2019-01-15T00:24:14.883Z,1006.03
2019-01-15T00:25:14.869Z,1006.00
2019-01-15T00:26:14.878Z,1006.07
2019-01-15T00:27:14.813Z,1006.07
2019-01-15T00:28:14.919Z,1006.05
2019-01-15T00:29:14.805Z,1006.02
2019-01-15T00:30:14.784Z,1006.08
2019-01-15T00:31:14.757Z,1006.08
2019-01-15T00:32:14.767Z,1006.02
2019-01-15T00:33:14.830Z,1006.04
2019-01-15T00:34:14.793Z,1006.08
2019-01-15T00:35:14.726Z,1006.10
2019-01-15T00:36:14.756Z,1006.04
2019-01-15T00:37:14.727Z,1006.04
2019-01-15T00:38:14.730Z,1006.05
2019-01-15T00:39:14.688Z,1006.06
2019-01-15T00:40:14.778Z,1006.02
2019-01-15T00:41:14.705Z,1006.09
2019-01-15T00:42:15.398Z,1006.06
2019-01-15T00:43:14.637Z,1006.04
2019-01-15T00:44:14.667Z,1006.03
2019-01-15T00:45:14.647Z,1006.05
2019-01-15T00:46:14.614Z,1006.08
2019-01-15T00:47:14.625Z,1006.05
2019-01-15T00:48:14.589Z,1006.10
2019-01-15T00:49:14.621Z,1006.10
2019-01-15T00:50:14.577Z,1006.18
2019-01-15T00:51:14.578Z,1006.13
2019-01-15T00:52:14.569Z,1006.12
2019-01-15T00:53:14.535Z,1006.15
2019-01-15T00:54:14.525Z,1006.09
2019-01-15T00:55:14.520Z,1006.11
2019-01-15T00:56:14.497Z,1006.15
2019-01-15T00:57:14.497Z,1006.17
2019-01-15T00:58:14.501Z,1006.10
2019-01-15T00:59:14.502Z,1006.10
2019-01-15T01:00:14.475Z,1006.13
2019-01-15T01:01:14.522Z,1006.13
2019-01-15T01:02:14.457Z,1006.16
2019-01-15T01:03:14.439Z,1006.17
2019-01-15T01:04:14.431Z,1006.16
2019-01-15T01:05:14.420Z,1006.12
2019-01-15T01:06:14.395Z,1006.15
2019-01-15T01:07:14.382Z,1006.14
2019-01-15T01:08:14.376Z,1006.17
2019-01-15T01:09:14.386Z,1006.13
2019-01-15T01:10:14.382Z,1006.12
2019-01-15T01:11:14.411Z,1006.13
2019-01-15T01:12:14.342Z,1006.11
2019-01-15T01:13:14.374Z,1006.13
2019-01-15T01:14:14.359Z,1006.10
2019-01-15T01:15:14.315Z,1006.06
2019-01-15T01:16:14.290Z,1006.09
2019-01-15T01:17:14.288Z,1006.02
2019-01-15T01:18:14.277Z,1006.03
2019-01-15T01:19:14.280Z,1006.00
2019-01-15T01:20:14.257Z,1006.01
2019-01-15T01:21:14.240Z,1006.01
2019-01-15T01:22:14.235Z,1006.02
2019-01-15T01:23:14.235Z,1006.02
2019-01-15T01:24:14.234Z,1006.02
2019-01-15T01:25:14.190Z,1006.09
2019-01-15T01:26:14.194Z,1006.09
2019-01-15T01:27:14.166Z,1006.11
2019-01-15T01:28:14.156Z,1006.08
2019-01-15T01:29:14.152Z,1006.07
2019-01-15T01:30:14.163Z,1006.08
2019-01-15T01:31:14.170Z,1006.08
2019-01-15T01:32:14.144Z,1006.06
2019-01-15T01:33:14.114Z,1006.07
2019-01-15T01:34:14.096Z,1006.09
2019-01-15T01:35:14.083Z,1006.11
2019-01-15T01:36:14.079Z,1006.14
2019-01-15T01:37:14.097Z,1006.20
2019-01-15T01:38:14.066Z,1006.17
2019-01-15T01:39:14.065Z,1006.19
2019-01-15T01:40:14.040Z,1006.17
2019-01-15T01:41:14.045Z,1006.17
2019-01-15T01:42:14.021Z,1006.12
2019-01-15T01:43:14.082Z,1006.19
2019-01-15T01:44:14.087Z,1006.25
2019-01-15T01:45:14.018Z,1006.21
2019-01-15T01:46:13.991Z,1006.20
2019-01-15T01:47:13.986Z,1006.18
2019-01-15T01:48:13.970Z,1006.25
2019-01-15T01:49:13.983Z,1006.21
2019-01-15T01:50:13.936Z,1006.27
2019-01-15T01:51:13.962Z,1006.31
2019-01-15T01:52:13.906Z,1006.35
2019-01-15T01:53:13.925Z,1006.41
2019-01-15T01:54:14.002Z,1006.41
2019-01-15T01:55:13.908Z,1006.43
2019-01-15T01:56:13.881Z,1006.44
2019-01-15T01:57:13.917Z,1006.41
2019-01-15T01:58:13.885Z,1006.42
2019-01-15T01:59:13.956Z,1006.45
2019-01-15T02:00:13.837Z,1006.36
2019-01-15T02:01:13.862Z,1006.35
2019-01-15T02:02:13.822Z,1006.31
2019-01-15T02:03:13.877Z,1006.33
2019-01-15T02:04:13.783Z,1006.34
2019-01-15T02:05:13.783Z,1006.32
2019-01-15T02:06:13.802Z,1006.30
2019-01-15T02:07:13.759Z,1006.31
2019-01-15T02:08:13.738Z,1006.38
2019-01-15T02:09:13.745Z,1006.34
2019-01-15T02:10:13.750Z,1006.35
2019-01-15T02:11:13.727Z,1006.31
2019-01-15T02:12:13.698Z,1006.33
2019-01-15T02:13:13.678Z,1006.34
2019-01-15T02:14:13.679Z,1006.34
2019-01-15T02:15:13.689Z,1006.32
2019-01-15T02:16:13.693Z,1006.33
2019-01-15T02:17:13.676Z,1006.33
2019-01-15T02:18:13.645Z,1006.32
2019-01-15T02:19:13.621Z,1006.34
2019-01-15T02:20:13.616Z,1006.35
2019-01-15T02:21:13.627Z,1006.28
2019-01-15T02:22:13.594Z,1006.30
2019-01-15T02:23:13.602Z,1006.31
2019-01-15T02:24:13.631Z,1006.32
2019-01-15T02:25:13.592Z,1006.34
2019-01-15T02:26:13.551Z,1006.29
2019-01-15T02:27:13.560Z,1006.32
2019-01-15T02:28:13.524Z,1006.30
2019-01-15T02:29:13.540Z,1006.28
2019-01-15T02:30:13.528Z,1006.29
2019-01-15T02:31:13.510Z,1006.26
2019-01-15T02:32:13.479Z,1006.25
2019-01-15T02:33:13.506Z,1006.30
2019-01-15T02:34:13.483Z,1006.23
2019-01-15T02:35:13.475Z,1006.23
2019-01-15T02:36:13.446Z,1006.23
2019-01-15T02:37:13.442Z,1006.27
2019-01-15T02:38:13.409Z,1006.31
2019-01-15T02:39:13.403Z,1006.24
2019-01-15T02:40:13.407Z,1006.26
2019-01-15T02:41:13.410Z,1006.25
2019-01-15T02:42:13.398Z,1006.24
2019-01-15T02:43:13.362Z,1006.26
2019-01-15T02:44:13.399Z,1006.31
2019-01-15T02:45:13.379Z,1006.30
2019-01-15T02:46:13.344Z,1006.33
2019-01-15T02:47:13.403Z,1006.32
2019-01-15T02:48:13.337Z,1006.32
2019-01-15T02:49:13.313Z,1006.24
2019-01-15T02:50:13.310Z,1006.28
2019-01-15T02:51:13.296Z,1006.31
2019-01-15T02:52:13.282Z,1006.29
2019-01-15T02:53:13.273Z,1006.30
2019-01-15T02:54:13.243Z,1006.30
2019-01-15T02:55:13.255Z,1006.27
2019-01-15T02:56:13.230Z,1006.25
2019-01-15T02:57:13.264Z,1006.24
2019-01-15T02:58:13.202Z,1006.20
2019-01-15T02:59:13.209Z,1006.20
2019-01-15T03:00:13.186Z,1006.24
2019-01-15T03:01:13.169Z,1006.23
2019-01-15T03:02:13.224Z,1006.20
2019-01-15T03:03:13.197Z,1006.25
2019-01-15T03:04:13.156Z,1006.24
2019-01-15T03:05:13.123Z,1006.28
2019-01-15T03:06:13.144Z,1006.28
2019-01-15T03:07:13.113Z,1006.26
2019-01-15T03:08:13.108Z,1006.17
2019-01-15T03:09:13.082Z,1006.17
2019-01-15T03:10:13.079Z,1006.12
2019-01-15T03:11:13.063Z,1006.13
2019-01-15T03:12:13.074Z,1006.08
2019-01-15T03:13:13.059Z,1006.13
2019-01-15T03:14:13.046Z,1006.14
2019-01-15T03:15:13.043Z,1006.11
2019-01-15T03:16:13.027Z,1006.12
2019-01-15T03:17:13.002Z,1006.10
2019-01-15T03:18:13.039Z,1006.11
2019-01-15T03:19:12.984Z,1006.11
2019-01-15T03:20:13.050Z,1006.09
2019-01-15T03:21:12.958Z,1006.09
2019-01-15T03:22:12.934Z,1006.11
2019-01-15T03:23:12.937Z,1006.12
2019-01-15T03:24:12.916Z,1006.11
2019-01-15T03:25:12.914Z,1006.07
2019-01-15T03:26:12.912Z,1006.04
2019-01-15T03:27:12.897Z,1006.11
2019-01-15T03:28:12.870Z,1006.04
2019-01-15T03:29:12.905Z,1006.04
2019-01-15T03:30:12.863Z,1006.03
2019-01-15T03:31:12.863Z,1006.05
2019-01-15T03:32:12.865Z,1006.01
2019-01-15T03:33:12.848Z,1005.98
2019-01-15T03:34:12.830Z,1005.99
2019-01-15T03:35:12.808Z,1006.01
2019-01-15T03:36:12.852Z,1006.01
2019-01-15T03:37:12.799Z,1005.98
2019-01-15T03:38:12.890Z,1005.96
2019-01-15T03:39:12.778Z,1005.85
2019-01-15T03:40:12.773Z,1005.80
2019-01-15T03:41:12.789Z,1005.75
2019-01-15T03:42:12.765Z,1005.73
2019-01-15T03:43:12.772Z,1005.77
2019-01-15T03:44:12.730Z,1005.78
2019-01-15T03:45:12.703Z,1005.83
2019-01-15T03:46:12.700Z,1005.83
2019-01-15T03:47:12.679Z,1005.85
2019-01-15T03:48:12.662Z,1005.80
2019-01-15T03:49:12.671Z,1005.78
2019-01-15T03:50:12.643Z,1005.77
2019-01-15T03:51:12.632Z,1005.78
2019-01-15T03:52:12.628Z,1005.78
2019-01-15T03:53:12.606Z,1005.79
2019-01-15T03:54:12.598Z,1005.78
2019-01-15T03:55:12.641Z,1005.77
2019-01-15T03:56:12.637Z,1005.78
2019-01-15T03:57:12.567Z,1005.76
2019-01-15T03:58:12.559Z,1005.76
2019-01-15T03:59:12.550Z,1005.75
2019-01-15T04:00:12.547Z,1005.73
2019-01-15T04:01:12.524Z,1005.67
2019-01-15T04:02:12.527Z,1005.71
2019-01-15T04:03:12.511Z,1005.71
2019-01-15T04:04:12.525Z,1005.69
2019-01-15T04:05:12.520Z,1005.72
2019-01-15T04:06:12.489Z,1005.70
2019-01-15T04:07:12.466Z,1005.75
2019-01-15T04:08:12.456Z,1005.74
2019-01-15T04:09:12.429Z,1005.81
2019-01-15T04:10:12.447Z,1005.78
2019-01-15T04:11:12.476Z,1005.80
2019-01-15T04:12:12.452Z,1005.78
2019-01-15T04:13:12.419Z,1005.78
2019-01-15T04:14:12.396Z,1005.75
2019-01-15T04:15:12.454Z,1005.80
2019-01-15T04:16:12.362Z,1005.83
2019-01-15T04:17:12.448Z,1005.90
2019-01-15T04:18:12.334Z,1005.89
2019-01-15T04:19:12.346Z,1005.90
2019-01-15T04:20:12.384Z,1005.92
2019-01-15T04:21:12.350Z,1005.90
2019-01-15T04:22:12.317Z,1005.95
2019-01-15T04:23:12.323Z,1005.94
2019-01-15T04:24:12.299Z,1005.90
2019-01-15T04:25:12.278Z,1005.89
2019-01-15T04:26:12.286Z,1005.86
2019-01-15T04:27:12.278Z,1005.80
2019-01-15T04:28:12.291Z,1005.75
2019-01-15T04:29:12.265Z,1005.75
2019-01-15T04:30:12.223Z,1005.74
2019-01-15T04:31:12.231Z,1005.72
2019-01-15T04:32:12.189Z,1005.70
2019-01-15T04:33:12.196Z,1005.68
2019-01-15T04:34:12.178Z,1005.70
2019-01-15T04:35:12.313Z,1005.65
2019-01-15T04:36:12.150Z,1005.66
2019-01-15T04:37:12.157Z,1005.65
2019-01-15T04:38:12.184Z,1005.59
2019-01-15T04:39:12.116Z,1005.59
2019-01-15T04:40:12.153Z,1005.58
2019-01-15T04:41:12.100Z,1005.61
2019-01-15T04:42:12.097Z,1005.56
2019-01-15T04:43:19.407Z,1005.58
2019-01-15T04:44:13.056Z,1005.55
2019-01-15T04:45:12.064Z,1005.60
2019-01-15T04:46:12.032Z,1005.60
2019-01-15T04:47:12.035Z,1005.58
2019-01-15T04:48:12.044Z,1005.55
2019-01-15T04:49:12.031Z,1005.57
2019-01-15T04:50:12.074Z,1005.61
2019-01-15T04:51:12.010Z,1005.61
2019-01-15T04:52:11.982Z,1005.62
2019-01-15T04:53:12.009Z,1005.66
2019-01-15T04:54:11.968Z,1005.64
2019-01-15T04:55:11.945Z,1005.60
2019-01-15T04:56:11.947Z,1005.65
2019-01-15T04:57:11.921Z,1005.62
2019-01-15T04:58:11.916Z,1005.64
2019-01-15T04:59:11.978Z,1005.61
2019-01-15T05:00:11.893Z,1005.61
2019-01-15T05:01:11.901Z,1005.62
2019-01-15T05:02:11.878Z,1005.64
2019-01-15T05:03:11.881Z,1005.62
2019-01-15T05:04:11.890Z,1005.62
2019-01-15T05:05:11.844Z,1005.58
2019-01-15T05:06:11.853Z,1005.66
2019-01-15T05:07:11.845Z,1005.66
2019-01-15T05:08:11.811Z,1005.65
2019-01-15T05:09:13.616Z,1005.61
2019-01-15T05:10:11.974Z,1005.56
2019-01-15T05:11:11.789Z,1005.56
2019-01-15T05:12:11.771Z,1005.50
2019-01-15T05:13:11.751Z,1005.53
2019-01-15T05:14:11.899Z,1005.51
2019-01-15T05:15:13.049Z,1005.45
2019-01-15T05:16:11.752Z,1005.46
2019-01-15T05:17:11.728Z,1005.39
2019-01-15T05:18:11.724Z,1005.35
2019-01-15T05:19:11.719Z,1005.36
2019-01-15T05:20:11.764Z,1005.39
2019-01-15T05:21:11.673Z,1005.44
2019-01-15T05:22:11.744Z,1005.45
2019-01-15T05:23:11.643Z,1005.42
2019-01-15T05:24:11.668Z,1005.43
2019-01-15T05:25:11.645Z,1005.40
2019-01-15T05:26:11.640Z,1005.39
2019-01-15T05:27:11.608Z,1005.43
2019-01-15T05:28:11.618Z,1005.43
2019-01-15T05:29:11.626Z,1005.35
2019-01-15T05:30:11.605Z,1005.39
2019-01-15T05:31:11.557Z,1005.36
2019-01-15T05:32:11.593Z,1005.33
2019-01-15T05:33:11.534Z,1005.36
2019-01-15T05:34:11.533Z,1005.34
2019-01-15T05:35:11.526Z,1005.29
2019-01-15T05:36:11.526Z,1005.27
2019-01-15T05:37:11.530Z,1005.26
2019-01-15T05:38:11.508Z,1005.25
2019-01-15T05:39:11.578Z,1005.25
2019-01-15T05:40:11.480Z,1005.24
2019-01-15T05:41:11.483Z,1005.27
2019-01-15T05:42:11.453Z,1005.27
2019-01-15T05:43:11.459Z,1005.33
2019-01-15T05:44:11.420Z,1005.34
2019-01-15T05:45:11.430Z,1005.30
2019-01-15T05:46:11.407Z,1005.30
2019-01-15T05:47:11.457Z,1005.27
2019-01-15T05:48:11.411Z,1005.27
2019-01-15T05:49:12.375Z,1005.24
2019-01-15T05:50:11.362Z,1005.22
2019-01-15T05:51:11.758Z,1005.22
2019-01-15T05:52:11.355Z,1005.22
2019-01-15T05:53:11.344Z,1005.20
2019-01-15T05:54:11.333Z,1005.22
2019-01-15T05:55:11.314Z,1005.20
2019-01-15T05:56:11.303Z,1005.20
2019-01-15T05:57:11.325Z,1005.17
2019-01-15T05:58:11.288Z,1005.17
2019-01-15T05:59:11.276Z,1005.16
2019-01-15T06:00:11.303Z,1005.18
2019-01-15T06:01:11.249Z,1005.15
2019-01-15T06:02:11.351Z,1005.17
2019-01-15T06:03:11.220Z,1005.18
2019-01-15T06:04:11.228Z,1005.12
2019-01-15T06:05:11.234Z,1005.14
2019-01-15T06:06:11.197Z,1005.12
2019-01-15T06:07:11.191Z,1005.04
2019-01-15T06:08:11.170Z,1005.00
2019-01-15T06:09:11.149Z,1005.08
2019-01-15T06:10:11.176Z,1005.00
2019-01-15T06:11:11.164Z,1004.98
2019-01-15T06:12:11.169Z,1004.95
2019-01-15T06:13:11.123Z,1004.89
2019-01-15T06:14:11.111Z,1004.96
2019-01-15T06:15:11.095Z,1004.92
2019-01-15T06:16:11.100Z,1005.00
2019-01-15T06:17:11.084Z,1004.95
2019-01-15T06:18:11.092Z,1004.92
2019-01-15T06:19:11.053Z,1004.96
2019-01-15T06:20:11.043Z,1004.96
2019-01-15T06:21:11.058Z,1004.97
2019-01-15T06:22:11.046Z,1005.02
2019-01-15T06:23:11.027Z,1005.03
2019-01-15T06:24:10.999Z,1005.03
2019-01-15T06:25:10.997Z,1005.06
2019-01-15T06:26:11.005Z,1005.01
2019-01-15T06:27:10.972Z,1005.02
2019-01-15T06:28:10.970Z,1004.98
2019-01-15T06:29:10.940Z,1004.94
2019-01-15T06:30:11.016Z,1004.89
2019-01-15T06:31:10.933Z,1004.87
2019-01-15T06:32:10.935Z,1004.90
2019-01-15T06:33:11.014Z,1004.84
2019-01-15T06:34:10.912Z,1004.83
2019-01-15T06:35:10.907Z,1004.83
2019-01-15T06:36:10.937Z,1004.82
2019-01-15T06:37:10.876Z,1004.77
2019-01-15T06:38:10.866Z,1004.73
2019-01-15T06:39:10.841Z,1004.69
2019-01-15T06:40:10.861Z,1004.66
2019-01-15T06:41:10.843Z,1004.64
2019-01-15T06:42:10.822Z,1004.65
2019-01-15T06:43:10.873Z,1004.67
2019-01-15T06:44:10.808Z,1004.74
2019-01-15T06:45:10.822Z,1004.74
2019-01-15T06:46:10.765Z,1004.75
2019-01-15T06:47:10.774Z,1004.77
2019-01-15T06:48:10.748Z,1004.79
2019-01-15T06:49:10.810Z,1004.77
2019-01-15T06:50:10.762Z,1004.82
2019-01-15T06:51:10.727Z,1004.76
2019-01-15T06:52:10.715Z,1004.74
2019-01-15T06:53:10.821Z,1004.80
2019-01-15T06:54:10.694Z,1004.78
2019-01-15T06:55:10.704Z,1004.84
2019-01-15T06:56:10.712Z,1004.83
2019-01-15T06:57:10.657Z,1004.81
2019-01-15T06:58:10.633Z,1004.79
2019-01-15T06:59:10.770Z,1004.83
2019-01-15T07:00:10.640Z,1004.84
2019-01-15T07:01:10.606Z,1004.83
2019-01-15T07:02:10.603Z,1004.82
2019-01-15T07:03:10.688Z,1004.76
2019-01-15T07:04:10.598Z,1004.77
2019-01-15T07:05:10.580Z,1004.73
2019-01-15T07:06:10.626Z,1004.78
2019-01-15T07:07:10.541Z,1004.81
2019-01-15T07:08:10.527Z,1004.78
2019-01-15T07:09:10.542Z,1004.82
2019-01-15T07:10:10.614Z,1004.83
2019-01-15T07:11:10.516Z,1004.77
2019-01-15T07:12:10.508Z,1004.75
2019-01-15T07:13:10.622Z,1004.76
2019-01-15T07:14:10.480Z,1004.75
2019-01-15T07:15:10.476Z,1004.78
2019-01-15T07:16:10.449Z,1004.80
2019-01-15T07:17:10.435Z,1004.83
2019-01-15T07:18:10.436Z,1004.84
2019-01-15T07:19:10.455Z,1004.82
2019-01-15T07:20:10.409Z,1004.85
2019-01-15T07:21:10.407Z,1004.82
2019-01-15T07:22:10.619Z,1004.79
2019-01-15T07:23:10.380Z,1004.84
2019-01-15T07:24:10.437Z,1004.86
2019-01-15T07:25:10.366Z,1004.84
2019-01-15T07:26:10.342Z,1004.88
2019-01-15T07:27:10.360Z,1004.89
2019-01-15T07:28:10.416Z,1004.87
2019-01-15T07:29:10.327Z,1004.92
2019-01-15T07:30:10.313Z,1004.92
2019-01-15T07:31:10.286Z,1004.92
2019-01-15T07:32:10.281Z,1004.92
2019-01-15T07:33:10.255Z,1004.91
2019-01-15T07:34:10.250Z,1004.93
2019-01-15T07:35:10.254Z,1004.91
2019-01-15T07:36:10.258Z,1004.94
2019-01-15T07:37:10.240Z,1004.94
2019-01-15T07:38:10.218Z,1004.98
2019-01-15T07:39:10.196Z,1005.00
2019-01-15T07:40:10.195Z,1004.98
2019-01-15T07:41:10.188Z,1004.93
2019-01-15T07:42:10.230Z,1004.94
2019-01-15T07:43:10.156Z,1004.91
2019-01-15T07:44:10.178Z,1004.94
2019-01-15T07:45:10.168Z,1004.93
2019-01-15T07:46:10.121Z,1004.94
2019-01-15T07:47:10.164Z,1004.95
2019-01-15T07:48:10.160Z,1004.97
2019-01-15T07:49:10.108Z,1004.93
2019-01-15T07:50:10.070Z,1004.89
2019-01-15T07:51:10.062Z,1004.93
2019-01-15T07:52:10.069Z,1004.91
2019-01-15T07:53:10.062Z,1004.90
2019-01-15T07:54:10.181Z,1004.93
2019-01-15T07:55:10.026Z,1004.91
2019-01-15T07:56:10.011Z,1004.95
2019-01-15T07:57:10.027Z,1004.93
2019-01-15T07:58:09.999Z,1004.95
2019-01-15T07:59:09.975Z,1004.96
2019-01-15T08:00:09.969Z,1005.01
2019-01-15T08:01:09.963Z,1005.01
2019-01-15T08:02:10.007Z,1005.00
2019-01-15T08:03:09.950Z,1005.01
2019-01-15T08:04:09.930Z,1004.99
2019-01-15T08:05:09.920Z,1005.03
2019-01-15T08:06:09.916Z,1005.05
2019-01-15T08:07:09.899Z,1005.06
2019-01-15T08:08:09.935Z,1005.08
2019-01-15T08:09:09.920Z,1005.04
2019-01-15T08:10:09.862Z,1005.02
2019-01-15T08:11:09.871Z,1005.09
2019-01-15T08:12:09.841Z,1005.06
2019-01-15T08:13:09.828Z,1005.03
2019-01-15T08:14:12.192Z,1005.06
2019-01-15T08:15:09.865Z,1005.02
2019-01-15T08:16:09.826Z,1005.12
2019-01-15T08:17:09.799Z,1005.09
2019-01-15T08:18:09.805Z,1005.08
2019-01-15T08:19:09.769Z,1005.11
2019-01-15T08:20:09.758Z,1005.16
2019-01-15T08:21:09.800Z,1005.11
2019-01-15T08:22:09.727Z,1005.09
2019-01-15T08:23:09.725Z,1005.06
2019-01-15T08:24:09.733Z,1005.09
2019-01-15T08:25:09.710Z,1005.05
2019-01-15T08:26:09.688Z,1005.01
2019-01-15T08:27:09.700Z,1005.06
2019-01-15T08:28:09.742Z,1005.05
2019-01-15T08:29:09.675Z,1005.08
2019-01-15T08:30:09.670Z,1005.08
2019-01-15T08:31:09.637Z,1005.07
2019-01-15T08:32:09.686Z,1005.09
2019-01-15T08:33:09.627Z,1005.10
2019-01-15T08:34:09.601Z,1005.08
2019-01-15T08:35:09.684Z,1005.02
2019-01-15T08:36:09.609Z,1005.04
2019-01-15T08:37:09.590Z,1005.06
2019-01-15T08:38:09.555Z,1005.06
2019-01-15T08:39:09.558Z,1005.03
2019-01-15T08:40:09.541Z,1005.06
2019-01-15T08:41:09.528Z,1005.03
2019-01-15T08:42:09.528Z,1005.03
2019-01-15T08:43:09.522Z,1004.99
2019-01-15T08:44:09.517Z,1005.05
2019-01-15T08:45:09.493Z,1005.06
2019-01-15T08:46:09.517Z,1005.04
2019-01-15T08:47:09.482Z,1005.02
2019-01-15T08:48:09.464Z,1005.01
2019-01-15T08:49:09.445Z,1005.01
2019-01-15T08:50:09.452Z,1005.00
2019-01-15T08:51:09.439Z,1005.03
2019-01-15T08:52:09.417Z,1005.00
2019-01-15T08:53:09.430Z,1004.98
2019-01-15T08:54:09.394Z,1004.97
2019-01-15T08:55:09.395Z,1004.98
2019-01-15T08:56:09.394Z,1004.98
2019-01-15T08:57:09.381Z,1005.05
2019-01-15T08:58:09.421Z,1005.04
2019-01-15T08:59:09.372Z,1005.05
2019-01-15T09:00:09.321Z,1005.00
2019-01-15T09:01:09.331Z,1005.02
2019-01-15T09:02:09.307Z,1005.01
2019-01-15T09:03:09.313Z,1004.99
2019-01-15T09:04:09.303Z,1004.97
2019-01-15T09:05:09.277Z,1004.98
2019-01-15T09:06:09.271Z,1004.92
2019-01-15T09:07:09.288Z,1004.97
2019-01-15T09:08:09.238Z,1004.99
2019-01-15T09:09:09.253Z,1005.07
2019-01-15T09:10:09.255Z,1005.04
2019-01-15T09:11:09.210Z,1005.01
2019-01-15T09:12:09.194Z,1005.08
2019-01-15T09:13:09.186Z,1005.02
2019-01-15T09:14:09.364Z,1005.02
2019-01-15T09:15:09.176Z,1005.04
2019-01-15T09:16:09.172Z,1005.01
2019-01-15T09:17:11.088Z,1005.03
2019-01-15T09:18:09.153Z,1005.06
2019-01-15T09:19:09.121Z,1005.00
2019-01-15T09:20:09.106Z,1004.98
2019-01-15T09:21:09.122Z,1005.02
2019-01-15T09:22:09.152Z,1004.93
2019-01-15T09:23:09.101Z,1004.98
2019-01-15T09:24:09.141Z,1005.00
2019-01-15T09:25:09.051Z,1004.99
2019-01-15T09:26:09.122Z,1005.00
2019-01-15T09:27:09.037Z,1004.97
2019-01-15T09:28:09.060Z,1005.01
2019-01-15T09:29:09.020Z,1004.96
2019-01-15T09:30:08.994Z,1005.03
2019-01-15T09:31:09.002Z,1005.03
2019-01-15T09:32:08.985Z,1005.02
2019-01-15T09:33:09.013Z,1005.02
2019-01-15T09:34:09.046Z,1004.97
2019-01-15T09:35:08.951Z,1004.96
2019-01-15T09:36:08.939Z,1004.94
2019-01-15T09:37:08.944Z,1004.97
2019-01-15T09:38:08.921Z,1004.94
2019-01-15T09:39:08.925Z,1004.93
2019-01-15T09:40:08.893Z,1005.00
2019-01-15T09:41:08.888Z,1004.97
2019-01-15T09:42:08.917Z,1005.00
2019-01-15T09:43:08.852Z,1005.01
2019-01-15T09:44:08.903Z,1005.02
2019-01-15T09:45:08.841Z,1004.97
2019-01-15T09:46:08.848Z,1004.98
2019-01-15T09:47:08.926Z,1004.99
2019-01-15T09:48:08.805Z,1004.95
2019-01-15T09:49:08.809Z,1004.92
2019-01-15T09:50:08.818Z,1004.97
2019-01-15T09:51:08.777Z,1004.96
2019-01-15T09:52:13.184Z,1004.97
2019-01-15T09:53:09.825Z,1005.00
2019-01-15T09:54:08.763Z,1004.98
2019-01-15T09:55:08.742Z,1005.01
2019-01-15T09:56:08.731Z,1005.02
2019-01-15T09:57:08.745Z,1004.99
2019-01-15T09:58:08.761Z,1005.01
2019-01-15T09:59:08.735Z,1004.99
2019-01-15T10:00:08.870Z,1005.02
2019-01-15T10:01:08.672Z,1004.99
2019-01-15T10:02:08.649Z,1005.02
2019-01-15T10:03:08.661Z,1005.03
2019-01-15T10:04:08.651Z,1004.95
2019-01-15T10:05:08.657Z,1004.97
2019-01-15T10:06:08.729Z,1004.98
2019-01-15T10:07:08.623Z,1004.98
2019-01-15T10:08:08.604Z,1005.02
2019-01-15T10:09:08.601Z,1004.95
2019-01-15T10:10:08.600Z,1004.97
2019-01-15T10:11:08.603Z,1005.00
2019-01-15T10:12:08.559Z,1004.99
2019-01-15T10:13:08.567Z,1004.97
2019-01-15T10:14:08.517Z,1005.00
2019-01-15T10:15:08.563Z,1004.92
2019-01-15T10:16:08.546Z,1004.91
2019-01-15T10:17:08.501Z,1004.98
2019-01-15T10:18:08.516Z,1004.95
2019-01-15T10:19:08.466Z,1004.97
2019-01-15T10:20:08.455Z,1004.95
2019-01-15T10:21:08.494Z,1004.95
2019-01-15T10:22:08.451Z,1004.93
2019-01-15T10:23:08.447Z,1004.89
2019-01-15T10:24:08.434Z,1004.87
2019-01-15T10:25:08.428Z,1004.92
2019-01-15T10:26:08.439Z,1004.87
2019-01-15T10:27:08.519Z,1004.90
2019-01-15T10:28:08.376Z,1004.88
2019-01-15T10:29:08.377Z,1004.88
2019-01-15T10:30:08.366Z,1004.84
2019-01-15T10:31:08.340Z,1004.78
2019-01-15T10:32:08.341Z,1004.81
2019-01-15T10:33:08.344Z,1004.86
2019-01-15T10:34:08.316Z,1004.78
2019-01-15T10:35:08.311Z,1004.81
2019-01-15T10:36:08.294Z,1004.82
2019-01-15T10:37:08.278Z,1004.82
2019-01-15T10:38:08.331Z,1004.77
2019-01-15T10:39:08.261Z,1004.78
2019-01-15T10:40:08.251Z,1004.83
2019-01-15T10:41:08.261Z,1004.82
2019-01-15T10:42:08.251Z,1004.78
2019-01-15T10:43:08.260Z,1004.74
2019-01-15T10:44:08.232Z,1004.74
2019-01-15T10:45:08.205Z,1004.75
2019-01-15T10:46:08.228Z,1004.72
2019-01-15T10:47:08.250Z,1004.74
2019-01-15T10:48:08.164Z,1004.72
2019-01-15T10:49:08.192Z,1004.70
2019-01-15T10:50:08.131Z,1004.66
2019-01-15T10:51:08.152Z,1004.65
2019-01-15T10:52:08.120Z,1004.65
2019-01-15T10:53:08.116Z,1004.64
2019-01-15T10:54:08.086Z,1004.65
2019-01-15T10:55:08.079Z,1004.61
2019-01-15T10:56:08.115Z,1004.59
2019-01-15T10:57:08.071Z,1004.60
2019-01-15T10:58:08.072Z,1004.60
2019-01-15T10:59:08.052Z,1004.50
2019-01-15T11:00:08.130Z,1004.48
2019-01-15T11:01:08.011Z,1004.46
2019-01-15T11:02:08.056Z,1004.48
2019-01-15T11:03:08.003Z,1004.44
2019-01-15T11:04:07.999Z,1004.43
2019-01-15T11:05:07.978Z,1004.43
2019-01-15T11:06:08.061Z,1004.42
2019-01-15T11:07:07.972Z,1004.39
2019-01-15T11:08:07.961Z,1004.35
2019-01-15T11:09:07.958Z,1004.33
2019-01-15T11:10:07.930Z,1004.30
2019-01-15T11:11:07.921Z,1004.33
2019-01-15T11:12:07.900Z,1004.27
2019-01-15T11:13:07.880Z,1004.25
2019-01-15T11:14:07.910Z,1004.28
2019-01-15T11:15:07.877Z,1004.22
2019-01-15T11:16:07.868Z,1004.25
2019-01-15T11:17:07.932Z,1004.17
2019-01-15T11:18:07.849Z,1004.16
2019-01-15T11:19:07.938Z,1004.14
2019-01-15T11:20:07.822Z,1004.18
2019-01-15T11:21:07.847Z,1004.16
2019-01-15T11:22:07.789Z,1004.11
2019-01-15T11:23:07.787Z,1004.12
2019-01-15T11:24:07.786Z,1004.10
2019-01-15T11:25:07.753Z,1004.15
2019-01-15T11:26:07.891Z,1004.08
2019-01-15T11:27:07.740Z,1004.11
2019-01-15T11:28:07.770Z,1004.14
2019-01-15T11:29:07.744Z,1004.07
2019-01-15T11:30:07.702Z,1004.11
2019-01-15T11:31:07.689Z,1004.10
2019-01-15T11:32:07.706Z,1004.05
2019-01-15T11:33:07.683Z,1004.09
2019-01-15T11:34:07.682Z,1004.07
2019-01-15T11:35:07.687Z,1004.11
2019-01-15T11:36:07.638Z,1004.14
2019-01-15T11:37:07.674Z,1004.12
2019-01-15T11:38:07.609Z,1004.14
2019-01-15T11:39:07.687Z,1004.14
2019-01-15T11:40:07.642Z,1004.09
2019-01-15T11:41:07.580Z,1004.05
2019-01-15T11:42:07.593Z,1004.10
2019-01-15T11:43:07.602Z,1004.09
2019-01-15T11:44:07.545Z,1004.08
2019-01-15T11:45:07.556Z,1004.07
2019-01-15T11:46:07.531Z,1004.07
2019-01-15T11:47:07.524Z,1004.03
2019-01-15T11:48:07.552Z,1004.06
2019-01-15T11:49:07.495Z,1004.09
2019-01-15T11:50:07.489Z,1004.03
2019-01-15T11:51:07.488Z,1003.99
2019-01-15T11:52:07.526Z,1003.98
2019-01-15T11:53:07.466Z,1003.97
2019-01-15T11:54:07.439Z,1004.01
2019-01-15T11:55:07.468Z,1004.01
2019-01-15T11:56:07.475Z,1004.03
2019-01-15T11:57:07.449Z,1004.06
2019-01-15T11:58:07.391Z,1004.00
2019-01-15T11:59:07.386Z,1004.04
2019-01-15T12:00:07.385Z,1003.95
2019-01-15T12:01:07.671Z,1003.92
2019-01-15T12:02:07.345Z,1003.97
2019-01-15T12:03:07.397Z,1003.99
2019-01-15T12:04:07.343Z,1003.97
2019-01-15T12:05:07.347Z,1003.98